This is the latest recevied weather packets stored in our database for station/object VK3PBR-10. If no packets are shown the sender has not sent any weather packets the latest 10 day(s).
| Time | Temp. | Humidity | Pressure | Rain* | Wind** | Luminosity | Snow |
|---|---|---|---|---|---|---|---|
| 1787848290 | 12.78° C | 57% | 1029.4 hPa | - | - | - | - |
| 1787847390 | 12.78° C | 57% | 1029.5 hPa | - | - | - | - |
| 1787846489 | 12.78° C | 57% | 1029.6 hPa | - | - | - | - |
| 1787845589 | 12.78° C | 58% | 1029.6 hPa | - | - | - | - |
| 1787844689 | 12.78° C | 57% | 1029.7 hPa | - | - | - | - |
| 1787843789 | 12.78° C | 57% | 1029.7 hPa | - | - | - | - |
| 1787842889 | 12.78° C | 57% | 1029.6 hPa | - | - | - | - |
| 1787841989 | 13.33° C | 56% | 1029.6 hPa | - | - | - | - |
| 1787841088 | 13.89° C | 54% | 1029.8 hPa | - | - | - | - |
| 1787840188 | 14.44° C | 54% | 1029.9 hPa | - | - | - | - |
| 1787839287 | 13.89° C | 55% | 1029.8 hPa | - | - | - | - |
| 1787838387 | 14.44° C | 55% | 1030 hPa | - | - | - | - |
| 1787837487 | 14.44° C | 54% | 1030.2 hPa | - | - | - | - |
| 1787836586 | 14.44° C | 54% | 1030.3 hPa | - | - | - | - |
| 1787835686 | 14.44° C | 54% | 1030.4 hPa | - | - | - | - |
| 1787834786 | 14.44° C | 54% | 1030.4 hPa | - | - | - | - |
| 1787833885 | 14.44° C | 54% | 1030.6 hPa | - | - | - | - |
| 1787832985 | 14.44° C | 55% | 1030.6 hPa | - | - | - | - |
| 1787832085 | 14.44° C | 55% | 1030.4 hPa | - | - | - | - |
| 1787831185 | 14.44° C | 55% | 1030.4 hPa | - | - | - | - |
| 1787830285 | 14.44° C | 55% | 1030.5 hPa | - | - | - | - |
| 1787829385 | 14.44° C | 54% | 1030.3 hPa | - | - | - | - |
| 1787828484 | 13.89° C | 54% | 1030.1 hPa | - | - | - | - |
| 1787827584 | 13.89° C | 54% | 1030.2 hPa | - | - | - | - |
| 1787826684 | 12.78° C | 54% | 1030.1 hPa | - | - | - | - |
* Rain since midnight (hover to see other rain measurements)
** Current wind speed in m/s (hover to see current wind gust speed)